Time;durP1;ratioP1;P1;durP2;ratioP2;P2;SDS_P1;SDS_P2;PMS_P1;PMS_P2;Temp;Humidity;BMP_temperature;BMP_pressure;BME280_temperature;BME280_humidity;BME280_pressure;Samples;Min_cycle;Max_cycle;Signal;HPM_P1;HPM_P2
2023/06/12 00:00:47;;;;;;;10.30;5.13;;;18.40;98.00;;;;;;5052821;28;20457;-68
2023/06/12 00:03:15;;;;;;;10.93;4.77;;;18.40;98.00;;;;;;5052722;28;20515;-68
2023/06/12 00:05:45;;;;;;;10.97;5.23;;;18.20;98.00;;;;;;5052872;28;20454;-68
2023/06/12 00:08:13;;;;;;;10.53;5.27;;;18.20;98.00;;;;;;5034568;28;20503;-68
2023/06/12 00:10:41;;;;;;;9.90;5.37;;;18.10;98.00;;;;;;5052660;28;20457;-68
2023/06/12 00:13:09;;;;;;;7.67;4.60;;;18.00;98.00;;;;;;5052713;28;20457;-68
2023/06/12 00:15:37;;;;;;;10.20;4.80;;;17.90;98.00;;;;;;5052409;28;20544;-67
2023/06/12 00:18:05;;;;;;;8.83;4.90;;;17.90;98.00;;;;;;5052553;28;20466;-68
2023/06/12 00:20:33;;;;;;;9.17;4.70;;;17.90;98.00;;;;;;5052594;28;20491;-68
2023/06/12 00:23:00;;;;;;;8.37;4.27;;;18.10;98.00;;;;;;5052503;28;20461;-67
2023/06/12 00:25:27;;;;;;;8.93;5.00;;;17.90;98.00;;;;;;5052511;28;20450;-68
2023/06/12 00:27:57;;;;;;;7.97;4.30;;;17.90;98.00;;;;;;5052706;28;20465;-68
2023/06/12 00:30:24;;;;;;;8.73;5.00;;;17.70;98.00;;;;;;5052292;28;20511;-68
2023/06/12 00:32:52;;;;;;;10.47;4.93;;;17.70;98.00;;;;;;5051903;28;20458;-68
2023/06/12 00:35:19;;;;;;;8.23;4.17;;;17.70;98.00;;;;;;5052053;28;20466;-68
2023/06/12 00:37:47;;;;;;;9.10;4.67;;;17.70;98.00;;;;;;5052176;28;20457;-68
2023/06/12 00:40:15;;;;;;;8.77;5.00;;;17.50;98.00;;;;;;5052259;28;20457;-68
2023/06/12 00:42:45;;;;;;;9.70;4.53;;;17.60;98.00;;;;;;5052089;28;20466;-68
2023/06/12 00:45:13;;;;;;;7.30;4.27;;;17.50;98.00;;;;;;5051941;28;20580;-68
2023/06/12 00:47:40;;;;;;;9.63;4.60;;;17.50;98.00;;;;;;5052010;28;20481;-68
2023/06/12 00:50:12;;;;;;;8.03;4.60;;;17.40;98.00;;;;;;5051047;28;20960;-67
2023/06/12 00:52:43;;;;;;;7.93;4.70;;;17.50;98.00;;;;;;5052003;28;20880;-68
2023/06/12 00:55:10;;;;;;;9.83;4.80;;;17.40;98.00;;;;;;5051869;28;20511;-68
2023/06/12 00:57:38;;;;;;;9.10;4.70;;;17.50;98.00;;;;;;5051803;28;20458;-68
2023/06/12 01:00:07;;;;;;;9.67;4.90;;;17.50;98.00;;;;;;5051932;28;20507;-67
2023/06/12 01:02:39;;;;;;;7.27;4.27;;;17.40;98.00;;;;;;5051856;28;21013;-67
2023/06/12 01:05:10;;;;;;;8.27;4.27;;;17.40;98.00;;;;;;5051741;28;20489;-67
2023/06/12 01:07:46;;;;;;;9.67;5.17;;;17.30;98.00;;;;;;5051770;28;20453;-68
2023/06/12 01:10:18;;;;;;;10.40;5.60;;;17.30;98.00;;;;;;5051565;28;20959;-68
2023/06/12 01:12:47;;;;;;;10.73;4.90;;;17.20;98.00;;;;;;5051801;28;20454;-68
2023/06/12 01:15:14;;;;;;;8.23;4.50;;;17.10;98.00;;;;;;5051676;28;20519;-68
2023/06/12 01:17:42;;;;;;;9.40;4.83;;;17.20;98.00;;;;;;5033726;28;21023;-68
2023/06/12 01:20:12;;;;;;;10.80;4.50;;;17.00;98.00;;;;;;5051797;28;20457;-67
2023/06/12 01:22:44;;;;;;;10.10;4.77;;;17.00;98.00;;;;;;5051657;28;20836;-68
2023/06/12 01:25:54;;;;;;;9.27;4.87;;;16.90;98.00;;;;;;5051571;28;20489;-67
2023/06/12 01:28:56;;;;;;;9.00;4.83;;;16.70;98.00;;;;;;5051716;28;20457;-68
2023/06/12 01:31:29;;;;;;;9.53;5.00;;;16.70;98.00;;;;;;5051565;28;20470;-68
2023/06/12 01:34:07;;;;;;;7.77;4.23;;;16.70;98.00;;;;;;5051686;28;20458;-68
2023/06/12 01:36:38;;;;;;;9.07;4.50;;;16.80;98.00;;;;;;5051467;28;20933;-68
2023/06/12 01:39:06;;;;;;;9.50;5.17;;;16.70;98.00;;;;;;5051613;28;20458;-68
2023/06/12 01:41:34;;;;;;;8.63;4.70;;;16.70;98.00;;;;;;5051213;28;20448;-68
2023/06/12 01:44:09;;;;;;;10.97;5.17;;;16.70;98.00;;;;;;5051489;28;20496;-67
2023/06/12 01:46:36;;;;;;;13.57;5.00;;;16.60;98.00;;;;;;5051567;28;20450;-67
2023/06/12 01:49:06;;;;;;;9.30;4.80;;;16.50;98.00;;;;;;5051645;28;20461;-68
2023/06/12 01:51:33;;;;;;;13.83;5.47;;;16.60;98.00;;;;;;5051107;28;20835;-67
2023/06/12 01:54:01;;;;;;;11.77;5.50;;;16.50;98.00;;;;;;5051424;28;20472;-68
2023/06/12 01:56:29;;;;;;;8.17;5.13;;;16.40;98.00;;;;;;5051335;28;20460;-67
2023/06/12 01:58:56;;;;;;;7.63;4.90;;;16.50;98.00;;;;;;5051358;28;20454;-67
2023/06/12 02:01:23;;;;;;;7.67;4.50;;;16.50;98.00;;;;;;5053916;28;20481;-68
2023/06/12 02:03:53;;;;;;;9.10;4.90;;;16.40;98.00;;;;;;5037076;28;20555;-68
2023/06/12 02:06:21;;;;;;;11.20;5.23;;;16.40;98.00;;;;;;5055107;28;20864;-68
2023/06/12 02:08:50;;;;;;;8.43;4.40;;;16.40;98.00;;;;;;5037405;28;20465;-68
2023/06/12 02:11:18;;;;;;;9.90;5.03;;;16.50;98.00;;;;;;5055094;28;20450;-67
2023/06/12 02:13:45;;;;;;;9.03;4.60;;;16.50;98.00;;;;;;5055182;28;20465;-67
2023/06/12 02:16:13;;;;;;;8.50;5.00;;;16.40;98.00;;;;;;5054798;28;20966;-68
2023/06/12 02:18:41;;;;;;;9.40;4.47;;;16.40;98.00;;;;;;5054989;28;20556;-68
2023/06/12 02:21:08;;;;;;;8.57;4.60;;;16.30;98.00;;;;;;5054706;28;20959;-68
2023/06/12 02:23:37;;;;;;;8.07;4.27;;;16.30;98.00;;;;;;5054557;28;20457;-68
2023/06/12 02:26:04;;;;;;;7.33;3.97;;;16.10;98.00;;;;;;5054264;28;20495;-67
2023/06/12 02:28:31;;;;;;;10.50;4.83;;;16.20;98.00;;;;;;5054508;28;20863;-68
2023/06/12 02:30:58;;;;;;;8.27;4.77;;;16.10;98.00;;;;;;5054445;28;20482;-68
2023/06/12 02:33:27;;;;;;;9.40;4.77;;;16.00;98.00;;;;;;5054329;28;20507;-68
2023/06/12 02:35:54;;;;;;;7.90;4.13;;;16.00;98.00;;;;;;5054353;28;20497;-67
2023/06/12 02:38:21;;;;;;;9.30;4.80;;;16.00;98.00;;;;;;5054400;28;20855;-67
2023/06/12 02:40:50;;;;;;;6.30;3.77;;;16.20;98.00;;;;;;5054443;28;20454;-68
2023/06/12 02:43:17;;;;;;;8.10;4.47;;;16.20;98.00;;;;;;5054288;28;20462;-68
2023/06/12 02:45:44;;;;;;;8.30;4.20;;;16.20;98.00;;;;;;5036521;28;20485;-68
2023/06/12 02:48:11;;;;;;;7.17;4.63;;;16.10;98.00;;;;;;5054290;28;20462;-68
2023/06/12 02:50:38;;;;;;;9.17;4.50;;;16.00;98.00;;;;;;5054106;28;20461;-67
2023/06/12 02:53:05;;;;;;;9.47;4.57;;;16.10;98.00;;;;;;5054211;28;20461;-68
2023/06/12 02:55:39;;;;;;;10.47;4.97;;;15.90;98.00;;;;;;5054135;28;20458;-68
2023/06/12 02:58:08;;;;;;;8.30;4.40;;;16.00;98.00;;;;;;5037683;28;20454;-67
2023/06/12 03:00:35;;;;;;;8.60;4.23;;;16.00;98.00;;;;;;5054030;28;21118;-68
2023/06/12 03:03:02;;;;;;;8.97;4.10;;;16.00;98.00;;;;;;5036760;28;20462;-67
2023/06/12 03:05:29;;;;;;;8.07;4.27;;;16.00;98.00;;;;;;5036034;28;20578;-67
2023/06/12 03:07:57;;;;;;;8.03;4.23;;;16.10;98.00;;;;;;5054102;28;20925;-67
2023/06/12 03:10:24;;;;;;;8.70;4.70;;;16.00;98.00;;;;;;5053838;28;20899;-67
2023/06/12 03:12:51;;;;;;;8.70;4.43;;;15.90;98.00;;;;;;5053196;28;20932;-68
2023/06/12 03:15:21;;;;;;;9.30;4.83;;;15.90;98.00;;;;;;5053601;28;20457;-67
2023/06/12 03:17:49;;;;;;;8.50;4.13;;;15.80;98.00;;;;;;5053432;28;20473;-67
2023/06/12 03:20:17;;;;;;;9.80;4.63;;;15.90;98.00;;;;;;5053529;28;20446;-67
2023/06/12 03:22:45;;;;;;;7.80;4.33;;;16.00;98.00;;;;;;5053471;28;20454;-67
2023/06/12 03:25:15;;;;;;;8.63;4.70;;;16.10;98.00;;;;;;5053547;28;20570;-68
2023/06/12 03:27:42;;;;;;;11.83;5.43;;;16.00;98.00;;;;;;5053607;28;20552;-68
2023/06/12 03:30:10;;;;;;;9.87;4.80;;;15.80;98.00;;;;;;5053053;28;20504;-67
2023/06/12 03:32:38;;;;;;;9.77;4.67;;;15.80;98.00;;;;;;5053227;28;20501;-68
2023/06/12 03:35:06;;;;;;;10.97;5.67;;;15.90;98.00;;;;;;5053420;28;20515;-67
2023/06/12 03:37:33;;;;;;;8.93;4.73;;;15.90;98.00;;;;;;5053180;28;20493;-67
2023/06/12 03:40:00;;;;;;;9.37;4.23;;;15.90;98.00;;;;;;5053165;28;20453;-67
2023/06/12 03:42:27;;;;;;;9.43;4.67;;;15.80;98.00;;;;;;5053080;28;20982;-67
2023/06/12 03:44:54;;;;;;;10.30;4.77;;;15.90;98.00;;;;;;5052921;28;20489;-67
2023/06/12 03:47:21;;;;;;;9.70;4.80;;;15.90;98.00;;;;;;5053205;28;20857;-68
2023/06/12 03:49:50;;;;;;;6.50;3.90;;;15.80;98.00;;;;;;5035270;28;20863;-67
2023/06/12 03:52:17;;;;;;;9.87;4.23;;;15.80;98.00;;;;;;5035514;28;20457;-67
2023/06/12 03:54:44;;;;;;;8.43;4.93;;;15.90;98.00;;;;;;5052955;28;20461;-67
2023/06/12 03:57:11;;;;;;;12.73;4.77;;;15.80;98.00;;;;;;5052931;28;20457;-67
2023/06/12 03:59:38;;;;;;;8.53;4.33;;;15.70;98.00;;;;;;5052828;28;20450;-68
2023/06/12 04:02:05;;;;;;;9.97;4.47;;;15.80;98.00;;;;;;5052356;28;20458;-67
2023/06/12 04:04:35;;;;;;;10.53;4.63;;;15.90;98.00;;;;;;5052092;28;20571;-67
2023/06/12 04:07:04;;;;;;;8.83;4.17;;;16.00;98.00;;;;;;5052094;28;20473;-67
2023/06/12 04:09:31;;;;;;;9.03;4.20;;;16.00;98.00;;;;;;5051922;28;20454;-67
2023/06/12 04:11:58;;;;;;;10.10;4.73;;;16.00;98.00;;;;;;5052488;28;20465;-68
2023/06/12 04:14:25;;;;;;;8.87;4.40;;;15.90;98.00;;;;;;5051931;28;20496;-67
2023/06/12 04:16:52;;;;;;;9.93;5.13;;;15.80;98.00;;;;;;5051720;28;20453;-68
2023/06/12 04:19:19;;;;;;;14.93;5.37;;;15.80;98.00;;;;;;5052191;28;20912;-68
2023/06/12 04:21:47;;;;;;;8.40;4.50;;;15.80;98.00;;;;;;5052284;28;20454;-68
2023/06/12 04:24:16;;;;;;;10.90;5.20;;;15.90;98.00;;;;;;5052123;28;20454;-68
2023/06/12 04:26:48;;;;;;;7.70;4.60;;;15.80;98.00;;;;;;5052136;28;20493;-68
2023/06/12 04:29:16;;;;;;;8.00;4.50;;;15.90;98.00;;;;;;5052315;28;20458;-68
2023/06/12 04:31:43;;;;;;;7.10;4.00;;;16.00;98.00;;;;;;5052124;28;20477;-68
2023/06/12 04:34:15;;;;;;;9.30;4.53;;;16.00;98.00;;;;;;5052446;28;20455;-67
2023/06/12 04:36:43;;;;;;;7.80;4.60;;;16.30;98.00;;;;;;5051974;28;20445;-67
2023/06/12 04:39:11;;;;;;;5.90;3.70;;;16.30;98.00;;;;;;5052156;28;20944;-68
2023/06/12 04:41:40;;;;;;;7.57;4.50;;;16.30;98.00;;;;;;5034392;28;20541;-68
2023/06/12 04:44:21;;;;;;;10.73;5.20;;;16.30;98.00;;;;;;5052279;28;20499;-68
2023/06/12 04:46:48;;;;;;;8.97;4.60;;;16.40;98.00;;;;;;5052079;28;20808;-67
2023/06/12 04:49:15;;;;;;;13.80;4.83;;;16.30;98.00;;;;;;5052261;28;20458;-68
2023/06/12 04:51:43;;;;;;;7.93;4.70;;;16.30;98.00;;;;;;5052009;28;20883;-68
2023/06/12 04:54:13;;;;;;;10.53;4.90;;;16.50;98.00;;;;;;5034426;28;20994;-68
2023/06/12 04:56:44;;;;;;;10.23;5.20;;;16.60;98.00;;;;;;5052029;28;20449;-68
2023/06/12 04:59:11;;;;;;;9.37;4.77;;;16.60;98.00;;;;;;5052063;28;20458;-67
2023/06/12 05:01:39;;;;;;;8.70;4.40;;;16.60;98.00;;;;;;5052035;28;20966;-68
2023/06/12 05:04:06;;;;;;;9.10;4.60;;;16.60;98.00;;;;;;5051977;28;20457;-68
2023/06/12 05:06:37;;;;;;;10.43;5.30;;;16.80;98.00;;;;;;5051749;28;20521;-68
2023/06/12 05:09:06;;;;;;;8.43;4.43;;;16.90;98.00;;;;;;5034090;28;20461;-68
2023/06/12 05:11:34;;;;;;;9.07;4.97;;;17.00;98.00;;;;;;5051935;28;20568;-67
2023/06/12 05:14:02;;;;;;;9.00;4.83;;;17.10;98.00;;;;;;5051538;28;20503;-68
2023/06/12 05:16:29;;;;;;;8.43;4.80;;;17.20;98.00;;;;;;5051540;28;20465;-68
2023/06/12 05:18:57;;;;;;;12.23;5.40;;;17.10;98.00;;;;;;5051669;28;20469;-67
2023/06/12 05:21:24;;;;;;;10.50;5.17;;;17.20;98.00;;;;;;5051611;28;20465;-68
2023/06/12 05:23:51;;;;;;;10.07;5.20;;;17.30;98.00;;;;;;5034067;28;20476;-68
2023/06/12 05:26:18;;;;;;;9.07;4.70;;;17.40;98.00;;;;;;5051485;28;20481;-68
2023/06/12 05:28:45;;;;;;;9.93;5.23;;;17.50;98.00;;;;;;5033890;28;20519;-68
2023/06/12 05:31:13;;;;;;;9.10;4.60;;;17.70;98.00;;;;;;5051564;28;20457;-67
2023/06/12 05:33:41;;;;;;;9.77;5.20;;;17.80;98.00;;;;;;5017441;28;20944;-67
2023/06/12 05:36:08;;;;;;;7.90;4.50;;;17.90;98.00;;;;;;5053717;28;20462;-67
2023/06/12 05:38:37;;;;;;;11.00;5.40;;;18.00;98.00;;;;;;5037876;28;20556;-68
2023/06/12 05:41:05;;;;;;;8.47;5.03;;;18.20;98.00;;;;;;5055631;28;20503;-68
2023/06/12 05:43:32;;;;;;;8.97;5.10;;;18.30;98.00;;;;;;5055275;28;20469;-68
2023/06/12 05:46:10;;;;;;;10.10;5.47;;;18.40;98.00;;;;;;5055318;28;21006;-68
2023/06/12 05:48:38;;;;;;;8.70;4.90;;;18.50;98.00;;;;;;5039264;28;20460;-68
2023/06/12 05:51:07;;;;;;;13.20;5.10;;;18.60;98.00;;;;;;5055511;28;20454;-68
2023/06/12 05:53:34;;;;;;;9.07;5.17;;;18.70;98.00;;;;;;5055423;28;20489;-67
2023/06/12 05:56:01;;;;;;;10.67;5.40;;;18.80;98.00;;;;;;5055314;28;20477;-67
2023/06/12 05:58:28;;;;;;;10.90;5.20;;;18.90;98.00;;;;;;5055362;28;20461;-67
2023/06/12 06:00:55;;;;;;;10.10;5.63;;;18.90;98.00;;;;;;5054899;28;20523;-68
2023/06/12 06:03:24;;;;;;;12.00;5.00;;;19.00;98.00;;;;;;5054973;28;20456;-68
2023/06/12 06:05:53;;;;;;;9.00;4.70;;;19.20;98.00;;;;;;5054389;28;20477;-68
2023/06/12 06:08:20;;;;;;;7.57;4.77;;;19.20;98.00;;;;;;5054883;28;20458;-68
2023/06/12 06:10:47;;;;;;;8.00;4.70;;;19.30;98.00;;;;;;5054985;28;20478;-66
2023/06/12 06:13:14;;;;;;;10.10;4.70;;;19.50;98.00;;;;;;5054748;28;20846;-66
2023/06/12 06:15:42;;;;;;;9.57;4.80;;;19.70;98.00;;;;;;5054641;28;20468;-66
2023/06/12 06:18:09;;;;;;;9.67;5.10;;;19.80;98.00;;;;;;5036674;28;20457;-66
2023/06/12 06:20:36;;;;;;;8.97;4.77;;;20.00;98.00;;;;;;5037047;28;20959;-65
2023/06/12 06:23:05;;;;;;;6.73;4.20;;;20.10;98.00;;;;;;5054698;28;20541;-64
2023/06/12 06:25:32;;;;;;;8.30;4.50;;;20.20;98.00;;;;;;5054366;28;20489;-64
2023/06/12 06:27:59;;;;;;;14.70;5.10;;;20.50;98.00;;;;;;5054598;28;20641;-64
2023/06/12 06:30:26;;;;;;;9.00;4.87;;;20.90;98.00;;;;;;5037082;28;20454;-64
2023/06/12 06:32:53;;;;;;;10.27;4.70;;;21.20;98.00;;;;;;5054662;28;20833;-64
2023/06/12 06:35:20;;;;;;;7.63;4.50;;;21.30;98.00;;;;;;5054608;28;21033;-64
2023/06/12 06:37:48;;;;;;;8.13;4.90;;;21.50;98.00;;;;;;5054388;28;20457;-64
2023/06/12 06:40:17;;;;;;;8.33;4.93;;;21.60;98.00;;;;;;5054331;28;20453;-64
2023/06/12 06:42:44;;;;;;;8.27;4.63;;;21.70;98.00;;;;;;5054377;28;20468;-64
2023/06/12 06:45:13;;;;;;;9.23;4.90;;;21.90;98.00;;;;;;5054569;28;20453;-64
2023/06/12 06:47:40;;;;;;;8.83;4.83;;;22.10;98.00;;;;;;5053351;28;20461;-64
2023/06/12 06:50:08;;;;;;;11.00;5.30;;;22.30;98.00;;;;;;5054497;28;20523;-64
2023/06/12 06:52:36;;;;;;;9.17;4.83;;;22.50;98.00;;;;;;5054474;28;20818;-64
2023/06/12 06:55:03;;;;;;;9.93;5.20;;;22.60;98.00;;;;;;5054109;28;20462;-64
2023/06/12 06:57:33;;;;;;;11.07;5.57;;;22.60;98.00;;;;;;5053914;28;20457;-64
2023/06/12 07:00:05;;;;;;;9.40;5.10;;;22.70;98.00;;;;;;5054022;28;20507;-66
2023/06/12 07:02:32;;;;;;;10.43;5.20;;;22.70;98.00;;;;;;5048502;28;21168;-67
2023/06/12 07:04:59;;;;;;;9.43;5.43;;;22.70;98.00;;;;;;5054017;28;20487;-65
2023/06/12 07:07:27;;;;;;;9.03;4.97;;;22.50;98.00;;;;;;5053804;28;20485;-69
2023/06/12 07:09:54;;;;;;;10.50;5.70;;;22.60;98.00;;;;;;5053470;28;20468;-64
2023/06/12 07:12:21;;;;;;;11.00;5.60;;;22.70;98.00;;;;;;5053794;28;21156;-65
2023/06/12 07:14:50;;;;;;;9.00;5.33;;;22.60;98.00;;;;;;5053578;28;20450;-65
2023/06/12 07:17:17;;;;;;;9.20;5.27;;;22.60;98.00;;;;;;5053257;28;20514;-65
2023/06/12 07:19:44;;;;;;;9.30;5.20;;;22.80;98.00;;;;;;5053619;28;20461;-65
2023/06/12 07:22:11;;;;;;;8.80;5.37;;;22.90;98.00;;;;;;5053641;28;20473;-64
2023/06/12 07:24:38;;;;;;;9.00;5.47;;;22.90;98.00;;;;;;5053562;28;20462;-66
2023/06/12 07:27:06;;;;;;;11.13;5.50;;;23.10;98.00;;;;;;5053437;28;20485;-65
2023/06/12 07:29:34;;;;;;;9.33;5.63;;;23.10;97.70;;;;;;5053577;28;20500;-64
2023/06/12 07:32:03;;;;;;;10.03;5.47;;;23.20;96.80;;;;;;5053498;28;20480;-65
2023/06/12 07:34:30;;;;;;;12.30;5.47;;;23.30;97.70;;;;;;5053692;28;20461;-65
2023/06/12 07:36:58;;;;;;;9.20;5.60;;;23.20;96.70;;;;;;5053432;28;20476;-64
2023/06/12 07:39:25;;;;;;;11.30;5.93;;;23.20;97.50;;;;;;5053562;28;20525;-65
2023/06/12 07:41:52;;;;;;;9.50;5.83;;;23.30;98.00;;;;;;5053252;28;20824;-65
2023/06/12 07:44:20;;;;;;;13.83;5.23;;;23.40;97.60;;;;;;5053612;28;20461;-64
2023/06/12 07:46:47;;;;;;;11.80;5.43;;;23.50;97.10;;;;;;5035534;28;20538;-65
2023/06/12 07:49:18;;;;;;;10.40;5.50;;;23.60;95.50;;;;;;5035634;28;20466;-66
2023/06/12 07:51:45;;;;;;;10.37;5.80;;;23.80;96.40;;;;;;5052947;28;20457;-65
2023/06/12 07:54:13;;;;;;;11.00;6.00;;;23.80;95.00;;;;;;5053149;28;20515;-65
2023/06/12 07:56:40;;;;;;;9.00;5.07;;;24.00;96.20;;;;;;5052582;28;20556;-65
2023/06/12 07:59:09;;;;;;;8.53;5.03;;;24.10;92.10;;;;;;5052833;28;20449;-65
2023/06/12 08:01:36;;;;;;;10.47;5.70;;;24.10;90.40;;;;;;5052500;28;20508;-65
2023/06/12 08:04:09;;;;;;;9.87;6.10;;;24.10;91.00;;;;;;5051807;28;20461;-65
2023/06/12 08:06:41;;;;;;;9.50;5.37;;;24.20;91.80;;;;;;5052247;28;20485;-65
2023/06/12 08:09:09;;;;;;;11.20;5.50;;;24.40;91.20;;;;;;5052400;28;20462;-65
2023/06/12 08:11:36;;;;;;;12.03;5.57;;;24.30;88.80;;;;;;5052090;28;20458;-65
2023/06/12 08:14:06;;;;;;;10.13;5.17;;;24.40;87.90;;;;;;5051672;28;20458;-65
2023/06/12 08:16:34;;;;;;;8.30;5.27;;;24.40;89.70;;;;;;5052435;28;20537;-65
2023/06/12 08:19:01;;;;;;;9.57;5.63;;;24.60;89.60;;;;;;5052464;28;20469;-66
2023/06/12 08:21:28;;;;;;;7.67;4.80;;;24.60;88.20;;;;;;5052210;28;20461;-65
2023/06/12 08:23:57;;;;;;;7.93;5.10;;;24.60;89.10;;;;;;5034483;28;20457;-66
2023/06/12 08:26:24;;;;;;;7.83;4.90;;;24.70;87.70;;;;;;5052060;28;20485;-66
2023/06/12 08:28:51;;;;;;;9.57;5.40;;;24.80;88.40;;;;;;5052447;28;20465;-66
2023/06/12 08:31:19;;;;;;;10.17;5.53;;;25.00;86.40;;;;;;5052028;28;20468;-66
2023/06/12 08:33:46;;;;;;;7.77;4.80;;;25.20;84.50;;;;;;5034659;28;20548;-66
2023/06/12 08:36:17;;;;;;;9.43;5.17;;;25.30;84.00;;;;;;5034550;28;20449;-65
2023/06/12 08:38:44;;;;;;;9.30;5.17;;;25.40;83.80;;;;;;5052509;28;20453;-66
2023/06/12 08:41:16;;;;;;;9.53;4.83;;;25.40;83.10;;;;;;5034564;28;20457;-66
2023/06/12 08:43:44;;;;;;;7.80;4.70;;;25.50;83.50;;;;;;5052160;28;20454;-66
2023/06/12 08:46:13;;;;;;;9.00;5.50;;;25.60;82.30;;;;;;5051410;28;20851;-66
2023/06/12 08:48:40;;;;;;;9.27;4.87;;;25.70;82.20;;;;;;5051853;28;20458;-65
2023/06/12 08:51:08;;;;;;;8.80;5.00;;;25.80;80.50;;;;;;5051465;28;20465;-66
2023/06/12 08:53:36;;;;;;;6.60;4.20;;;25.80;80.80;;;;;;5051793;28;20449;-66
2023/06/12 08:56:03;;;;;;;6.63;4.50;;;25.80;81.70;;;;;;5051680;28;20864;-66
2023/06/12 08:58:32;;;;;;;8.83;5.03;;;25.80;80.60;;;;;;5051531;28;20449;-66
2023/06/12 09:00:59;;;;;;;8.43;4.93;;;26.00;80.20;;;;;;5051519;28;20959;-65
2023/06/12 09:03:27;;;;;;;11.23;5.30;;;26.10;78.80;;;;;;5051535;28;20453;-67
2023/06/12 09:06:05;;;;;;;9.50;5.53;;;26.20;78.80;;;;;;5034186;28;20532;-66
2023/06/12 09:08:35;;;;;;;7.80;5.23;;;26.30;78.20;;;;;;5051705;28;20466;-66
2023/06/12 09:11:02;;;;;;;7.13;4.60;;;26.30;78.50;;;;;;5051013;28;20955;-65
2023/06/12 09:13:42;;;;;;;7.90;4.80;;;26.30;80.50;;;;;;5051286;28;20461;-65
2023/06/12 09:16:12;;;;;;;7.83;4.60;;;26.50;78.80;;;;;;5051569;28;20541;-66
2023/06/12 09:18:49;;;;;;;8.30;4.80;;;26.70;78.60;;;;;;5050916;28;20975;-65
2023/06/12 09:21:17;;;;;;;10.43;5.40;;;26.80;78.50;;;;;;5050878;28;20485;-66
2023/06/12 09:23:45;;;;;;;10.37;5.30;;;27.00;77.70;;;;;;5050844;28;20546;-66
2023/06/12 09:26:15;;;;;;;8.20;4.90;;;27.00;76.60;;;;;;5050601;28;20482;-65
2023/06/12 09:28:44;;;;;;;9.27;5.33;;;27.00;78.90;;;;;;5050850;28;20462;-67
2023/06/12 09:31:16;;;;;;;8.37;5.50;;;27.10;76.30;;;;;;5051107;28;20454;-66
2023/06/12 09:33:45;;;;;;;8.77;5.17;;;27.10;77.20;;;;;;5050788;28;20454;-66
2023/06/12 09:36:13;;;;;;;8.43;4.83;;;27.30;76.60;;;;;;5050510;28;20477;-65
2023/06/12 09:38:40;;;;;;;8.20;5.30;;;27.50;76.40;;;;;;5050520;28;20940;-66
2023/06/12 09:41:09;;;;;;;10.47;5.27;;;27.70;75.90;;;;;;5050353;28;20454;-66
2023/06/12 09:43:37;;;;;;;8.77;5.23;;;27.60;74.10;;;;;;5050463;28;20555;-66
2023/06/12 09:46:08;;;;;;;9.03;5.40;;;27.60;74.20;;;;;;5049983;28;20461;-66
2023/06/12 09:48:38;;;;;;;10.30;5.30;;;27.80;74.60;;;;;;5050144;28;20449;-66
2023/06/12 09:51:07;;;;;;;9.50;5.40;;;27.90;74.60;;;;;;5050101;28;20489;-66
2023/06/12 09:53:38;;;;;;;7.30;4.47;;;28.00;75.20;;;;;;5032602;28;20465;-66
2023/06/12 09:56:07;;;;;;;8.07;5.10;;;28.10;74.40;;;;;;5050279;28;20523;-66
2023/06/12 09:58:37;;;;;;;9.13;5.40;;;28.10;74.00;;;;;;5050462;28;20552;-66
2023/06/12 10:01:07;;;;;;;8.63;5.67;;;28.10;74.00;;;;;;5050570;28;20540;-66
2023/06/12 10:03:38;;;;;;;10.23;5.50;;;28.20;75.00;;;;;;5050464;28;20454;-66
2023/06/12 10:06:07;;;;;;;11.73;5.37;;;28.30;75.00;;;;;;5050640;28;20463;-66
2023/06/12 10:08:35;;;;;;;8.63;5.40;;;28.40;74.10;;;;;;5032671;28;20466;-66
2023/06/12 10:11:04;;;;;;;9.77;5.93;;;28.60;74.30;;;;;;5050430;28;20454;-66
2023/06/12 10:13:32;;;;;;;8.20;5.40;;;28.70;72.80;;;;;;5032752;28;20480;-66
2023/06/12 10:16:00;;;;;;;10.63;5.83;;;28.80;71.70;;;;;;5050421;28;21042;-66
2023/06/12 10:18:29;;;;;;;8.73;5.00;;;28.70;71.20;;;;;;5050299;28;20971;-66
2023/06/12 10:20:57;;;;;;;8.10;5.10;;;28.50;74.10;;;;;;5016369;28;20956;-66
2023/06/12 10:23:25;;;;;;;7.73;4.93;;;28.30;73.10;;;;;;5053848;28;20647;-66
2023/06/12 10:25:53;;;;;;;7.70;4.97;;;28.40;73.20;;;;;;5053562;28;20453;-66
2023/06/12 10:28:22;;;;;;;8.07;4.90;;;28.50;73.00;;;;;;5053508;28;20489;-66
2023/06/12 10:31:15;;;;;;;7.43;4.90;;;28.70;72.10;;;;;;5053555;28;20457;-66
2023/06/12 10:34:02;;;;;;;7.20;4.67;;;29.00;70.50;;;;;;5053749;28;20449;-66
2023/06/12 10:36:42;;;;;;;6.53;4.50;;;29.20;69.70;;;;;;5053526;28;20454;-66
2023/06/12 10:39:16;;;;;;;8.30;4.97;;;29.30;69.60;;;;;;5053813;28;20454;-66
2023/06/12 10:41:55;;;;;;;6.43;4.50;;;29.40;67.90;;;;;;5053721;28;20560;-64
2023/06/12 10:44:37;;;;;;;7.17;4.60;;;29.40;67.70;;;;;;5053461;28;20512;-64
2023/06/12 10:47:04;;;;;;;8.87;5.23;;;29.30;68.40;;;;;;5053633;28;20493;-65
2023/06/12 10:50:00;;;;;;;8.13;4.60;;;29.50;68.60;;;;;;5053259;28;20457;-65
2023/06/12 10:52:27;;;;;;;7.53;4.97;;;29.30;69.00;;;;;;5053383;28;21042;-65
2023/06/12 10:55:22;;;;;;;7.87;4.97;;;29.30;69.70;;;;;;5053383;28;20536;-64
2023/06/12 10:57:51;;;;;;;7.50;4.70;;;29.40;68.90;;;;;;5053222;28;20450;-65
2023/06/12 11:00:20;;;;;;;9.70;5.30;;;29.50;66.60;;;;;;5053564;28;20515;-65
2023/06/12 11:02:57;;;;;;;8.27;4.80;;;29.70;67.50;;;;;;5052958;28;20461;-65
2023/06/12 11:05:26;;;;;;;10.40;5.23;;;30.00;68.80;;;;;;5052745;28;21015;-66
2023/06/12 11:07:58;;;;;;;8.07;4.80;;;30.10;67.70;;;;;;5051558;28;20947;-65
2023/06/12 11:10:26;;;;;;;9.93;5.57;;;30.00;67.80;;;;;;5052850;28;20578;-64
2023/06/12 11:12:53;;;;;;;7.60;5.00;;;30.20;66.80;;;;;;5053122;28;20450;-64
2023/06/12 11:15:22;;;;;;;8.60;5.20;;;30.30;67.30;;;;;;5052489;28;20462;-64
2023/06/12 11:17:51;;;;;;;10.97;5.30;;;30.20;67.00;;;;;;5037737;28;20490;-64
2023/06/12 11:20:20;;;;;;;7.33;4.97;;;30.20;67.00;;;;;;5049864;28;20494;-64
2023/06/12 11:22:50;;;;;;;15.60;5.30;;;30.40;66.60;;;;;;5013134;28;20964;-64
2023/06/12 11:25:17;;;;;;;9.43;5.20;;;30.70;67.20;;;;;;5025161;28;21027;-64
2023/06/12 11:27:47;;;;;;;6.87;4.90;;;30.80;67.10;;;;;;5032471;28;21161;-65
2023/06/12 11:30:16;;;;;;;7.27;4.83;;;31.00;65.70;;;;;;5032541;28;20463;-65
2023/06/12 11:32:43;;;;;;;7.83;4.90;;;31.10;64.30;;;;;;5031891;28;20516;-65
2023/06/12 11:35:12;;;;;;;11.80;5.47;;;31.00;65.80;;;;;;5032294;28;20553;-64
2023/06/12 11:37:40;;;;;;;8.17;5.33;;;31.10;66.80;;;;;;5032383;28;20473;-65
2023/06/12 11:40:13;;;;;;;14.57;5.00;;;31.20;64.80;;;;;;5032814;28;20470;-64
2023/06/12 11:42:41;;;;;;;7.90;5.00;;;31.50;65.50;;;;;;5032423;28;20458;-65
2023/06/12 11:45:10;;;;;;;8.20;4.90;;;31.60;63.70;;;;;;5032218;28;20807;-64
2023/06/12 11:47:38;;;;;;;7.93;4.93;;;31.80;62.90;;;;;;5032340;28;20487;-65
2023/06/12 11:50:07;;;;;;;7.43;5.13;;;31.70;63.70;;;;;;5032239;28;20521;-65
2023/06/12 11:52:35;;;;;;;7.43;4.90;;;31.80;64.60;;;;;;5032062;28;20493;-65
2023/06/12 11:55:08;;;;;;;6.73;4.60;;;31.90;63.70;;;;;;5032237;28;20459;-65
2023/06/12 11:57:37;;;;;;;12.17;5.30;;;32.00;62.60;;;;;;5015107;28;20470;-65
2023/06/12 12:00:13;;;;;;;8.63;5.00;;;32.00;63.10;;;;;;5032413;28;20455;-65
2023/06/12 12:02:43;;;;;;;12.60;5.07;;;31.90;62.50;;;;;;5032004;28;20466;-65
2023/06/12 12:05:12;;;;;;;7.33;4.80;;;32.10;62.80;;;;;;5031998;28;20462;-65
2023/06/12 12:07:39;;;;;;;6.93;4.67;;;32.30;62.60;;;;;;5031398;28;20518;-64
2023/06/12 12:10:08;;;;;;;8.90;5.60;;;32.10;62.50;;;;;;5014230;28;20976;-65
2023/06/12 12:12:49;;;;;;;7.80;4.63;;;32.00;62.90;;;;;;5031877;28;20465;-65
2023/06/12 12:15:17;;;;;;;9.20;5.90;;;32.10;63.80;;;;;;5049144;28;20479;-65
2023/06/12 12:17:45;;;;;;;8.67;5.63;;;32.30;63.90;;;;;;5051590;28;20470;-65
2023/06/12 12:20:17;;;;;;;6.97;4.73;;;32.50;62.70;;;;;;5051665;28;20453;-65
2023/06/12 12:22:48;;;;;;;7.43;5.00;;;32.60;61.70;;;;;;5051558;28;20464;-65
2023/06/12 12:25:17;;;;;;;7.97;5.03;;;32.70;61.60;;;;;;5051481;28;20457;-65
2023/06/12 12:27:50;;;;;;;8.40;5.63;;;32.80;60.80;;;;;;5051285;28;20481;-68
2023/06/12 12:30:19;;;;;;;7.57;4.90;;;32.90;60.70;;;;;;5033934;28;20738;-69
2023/06/12 12:32:47;;;;;;;7.50;5.13;;;33.10;61.10;;;;;;5051349;28;20457;-70
2023/06/12 12:35:15;;;;;;;8.20;5.30;;;33.20;61.50;;;;;;5051305;28;20453;-68
2023/06/12 12:37:43;;;;;;;10.20;5.80;;;33.10;62.50;;;;;;5051266;28;20481;-70
2023/06/12 12:40:13;;;;;;;7.40;4.83;;;32.80;61.10;;;;;;5050742;28;20469;-70
2023/06/12 12:42:41;;;;;;;6.57;4.70;;;32.70;62.10;;;;;;5033835;28;20507;-69
2023/06/12 12:45:11;;;;;;;7.20;4.40;;;32.80;60.00;;;;;;5050226;28;20454;-69
2023/06/12 12:47:40;;;;;;;8.47;5.23;;;33.10;60.00;;;;;;5050981;28;20492;-67
2023/06/12 12:50:09;;;;;;;8.03;5.23;;;33.10;59.00;;;;;;5051651;28;20887;-65
2023/06/12 12:52:36;;;;;;;8.07;5.10;;;33.40;59.60;;;;;;5051789;28;20469;-66
2023/06/12 12:55:05;;;;;;;8.93;5.23;;;33.60;57.30;;;;;;5052190;28;20462;-66